Aérodrome :
LOGIN :

S'inscrire | Disclaimer

   EN    FR    IT 

 










Légende :    VFR   VFR Marginal   IFR   IFR Intensif   IFR Très Intensif
Visi : 
Plafond : 
>= 8 km
>= 3000ft
5 à 8 km
1000 à 3000 ft
1500m à 5 km
500 à 1000 ft
800 à 1500m
200 à 500 ft
< 800m
< 200 ft
Symboles :   Orages  Brouillard  Fortes neiges  Fortes précipitations  Vent > 20 kt
SIGMETs :   Divers  Orages  Givrage  Turbulence  Onde Orograph.  Cendres Volcan.






- Altitude de l'aérodrome : 204 ft
- Code IATA : KSU


ENKB - Kristiansund , Kvernberget

DERNIER METAR :
  • 221550Z 20009G19KT 160V250 9999 FEW008 SCT022TCU 02/M01 Q0971 RMK WIND 745FT 21025KT

METARs EXPIRÉS :
  • 221520Z 22014KT 9999 VCSH FEW013 SCT031 BKN048 04/M01 Q0971 RMK WIND 745FT 23026G38KT
  • 221450Z 23017G29KT 9999 -DZ VCSH FEW013 SCT031 BKN048 03/M01 Q0971 RESHSN RMK WIND 745FT 23033G45KT
  • 221420Z 22017KT 9999 VCSH FEW013TCU SCT034 BKN063 03/M01 Q0971 RMK WIND 745FT 23029KT
  • 221350Z 23018G29KT 190V260 3100 -RA FEW003 SCT014 BKN036 02/00 Q0971 RMK WIND 745FT 23032G43KT
  • 221320Z 22014G26KT 160V250 9999 FEW018TCU SCT030 03/M00 Q0971 RERA RMK WIND 745FT 23025KT
  • 221250Z 22014KT 190V250 9999 FEW006 SCT031TCU 03/M01 Q0971 RMK WIND 745FT 22022KT

Prévision TAF périmée.



MET'MAP, la Météo Aéronautique d'un coup d'oeil ! - Copyright ORBIFLY Décembre 2007 - Disclaimer

ORBIFLY MET'MAP TEAM :

Programmation & Développement : Alexandra Zaïnal
Sur une idée originale de : Baudouin d'Aumeries
Assistance à la programmation : Marc-Olivier Méhu
Soutien technique & logistique : Manuel Goepfert

Contact : metmap@orbifly.com




SOURCES & CREDITS :

   NOAA